Time,TemperatureF,DewpointF,PressureIn,WindDirection,WindDirectionDegrees,WindSpeedMPH,WindSpeedGustMPH,Humidity,HourlyPrecipIn,Conditions,Clouds,dailyrainin,SoftwareType,DateUTC
2013-01-09 00:11:00,67.9,67.0,25.45,NNE,24,0.0,-999.0,95,-99.99,,,0.00,weatherlink.com 1.10,2013-01-09 05:11:00,
2013-01-09 00:26:00,67.9,67.0,25.45,NNE,25,0.0,-999.0,95,-99.99,,,0.00,weatherlink.com 1.10,2013-01-09 05:26:00,
2013-01-09 00:41:00,68.0,67.0,25.45,NNE,24,6.0,-999.0,95,-99.99,,,0.00,weatherlink.com 1.10,2013-01-09 05:41:00,
2013-01-09 00:56:00,68.1,67.0,25.45,NNE,24,0.0,-999.0,96,-99.99,,,0.00,weatherlink.com 1.10,2013-01-09 05:56:00,
2013-01-09 01:11:00,68.1,67.0,25.45,NNE,24,0.0,-999.0,96,-99.99,,,0.00,weatherlink.com 1.10,2013-01-09 06:11:00,
2013-01-09 01:26:00,68.1,67.0,25.45,NNE,24,0.0,-999.0,96,-99.99,,,0.00,weatherlink.com 1.10,2013-01-09 06:26:00,
2013-01-09 01:41:00,68.1,67.0,25.84,NNE,24,0.0,-999.0,96,-99.99,,,0.00,weatherlink.com 1.10,2013-01-09 06:41:00,
2013-01-09 01:56:00,68.1,67.0,25.84,NNE,24,0.0,-999.0,96,-99.99,,,0.00,weatherlink.com 1.10,2013-01-09 06:56:00,
2013-01-09 02:11:00,68.1,67.0,25.84,NNE,24,0.0,-999.0,96,-99.99,,,0.00,weatherlink.com 1.10,2013-01-09 07:11:00,
2013-01-09 02:26:00,68.1,67.0,25.84,NNE,24,0.0,-999.0,96,-99.99,,,0.00,weatherlink.com 1.10,2013-01-09 07:26:00,
2013-01-09 02:41:00,68.0,67.0,26.98,NNE,24,0.0,-999.0,96,-99.99,,,0.00,weatherlink.com 1.10,2013-01-09 07:41:00,
2013-01-09 02:56:00,68.0,67.0,26.98,NNE,24,0.0,-999.0,97,-99.99,,,0.00,weatherlink.com 1.10,2013-01-09 07:56:00,
2013-01-09 03:11:00,67.9,67.0,27.34,NNE,24,0.0,-999.0,97,-99.99,,,0.00,weatherlink.com 1.10,2013-01-09 08:11:00,
2013-01-09 03:26:00,67.8,67.0,27.13,NNE,24,0.0,-999.0,97,-99.99,,,0.00,weatherlink.com 1.10,2013-01-09 08:26:00,
2013-01-09 03:41:00,67.7,67.0,27.13,NNE,24,0.0,-999.0,97,-99.99,,,0.00,weatherlink.com 1.10,2013-01-09 08:41:00,
2013-01-09 03:56:00,67.6,67.0,27.13,NNE,24,0.0,-999.0,97,-99.99,,,0.00,weatherlink.com 1.10,2013-01-09 08:56:00,
2013-01-09 04:11:00,67.5,67.0,27.13,NNE,24,0.0,-999.0,97,-99.99,,,0.00,weatherlink.com 1.10,2013-01-09 09:11:00,
2013-01-09 04:26:00,67.3,67.0,27.13,NNE,24,0.0,-999.0,97,-99.99,,,0.00,weatherlink.com 1.10,2013-01-09 09:26:00,
2013-01-09 04:41:00,67.2,66.0,27.13,NNE,24,0.0,-999.0,97,-99.99,,,0.00,weatherlink.com 1.10,2013-01-09 09:41:00,
2013-01-09 04:56:00,67.0,66.0,27.13,NNE,24,0.0,-999.0,97,-99.99,,,0.00,weatherlink.com 1.10,2013-01-09 09:56:00,
2013-01-09 05:11:00,67.0,66.0,27.13,NNE,24,0.0,-999.0,97,-99.99,,,0.00,weatherlink.com 1.10,2013-01-09 10:11:00,
2013-01-09 05:26:00,66.9,66.0,27.13,NNE,24,0.0,-999.0,97,-99.99,,,0.00,weatherlink.com 1.10,2013-01-09 10:26:00,
2013-01-09 05:41:00,66.8,66.0,26.99,NNE,24,0.0,-999.0,97,-99.99,,,0.00,weatherlink.com 1.10,2013-01-09 10:41:00,
2013-01-09 05:56:00,66.7,66.0,26.99,NNE,24,0.0,-999.0,97,-99.99,,,0.00,weatherlink.com 1.10,2013-01-09 10:56:00,
2013-01-09 06:11:00,66.7,66.0,26.99,NNE,24,0.0,-999.0,97,-99.99,,,0.00,weatherlink.com 1.10,2013-01-09 11:11:00,
2013-01-09 06:26:00,66.6,66.0,26.99,NNE,24,0.0,-999.0,97,-99.99,,,0.00,weatherlink.com 1.10,2013-01-09 11:26:00,
2013-01-09 06:41:00,66.5,66.0,26.99,NNE,24,0.0,-999.0,97,-99.99,,,0.00,weatherlink.com 1.10,2013-01-09 11:41:00,
2013-01-09 06:56:00,66.5,66.0,26.99,NNE,24,0.0,-999.0,97,-99.99,,,0.01,weatherlink.com 1.10,2013-01-09 11:56:00,
2013-01-09 07:11:00,66.7,66.0,28.12,NNE,24,0.0,-999.0,97,-99.99,,,0.01,weatherlink.com 1.10,2013-01-09 12:11:00,
2013-01-09 07:26:00,66.8,66.0,26.37,NNE,24,0.0,-999.0,97,-99.99,,,0.01,weatherlink.com 1.10,2013-01-09 12:26:00,
2013-01-09 07:42:00,66.8,66.0,26.37,NNE,24,0.0,-999.0,97,-99.99,,,0.01,weatherlink.com 1.10,2013-01-09 12:42:00,
2013-01-09 07:57:00,67.3,67.0,26.37,NNE,25,0.0,-999.0,97,-99.99,,,0.01,weatherlink.com 1.10,2013-01-09 12:57:00,
2013-01-09 08:12:00,67.5,67.0,26.37,NNE,24,0.0,-999.0,97,-99.99,,,0.01,weatherlink.com 1.10,2013-01-09 13:12:00,
2013-01-09 08:27:00,67.8,67.0,26.37,NNE,24,0.0,-999.0,98,-99.99,,,0.01,weatherlink.com 1.10,2013-01-09 13:27:00,
2013-01-09 08:42:00,68.3,68.0,26.23,NNE,29,0.0,-999.0,97,-99.99,,,0.01,weatherlink.com 1.10,2013-01-09 13:42:00,
2013-01-09 08:57:00,68.5,68.0,26.23,NNE,29,0.0,-999.0,98,-99.99,,,0.01,weatherlink.com 1.10,2013-01-09 13:57:00,
2013-01-09 09:12:00,68.9,68.0,26.23,NNE,29,0.0,-999.0,98,-99.99,,,0.01,weatherlink.com 1.10,2013-01-09 14:12:00,
2013-01-09 09:27:00,69.2,69.0,26.23,NNE,29,0.0,-999.0,98,-99.99,,,0.01,weatherlink.com 1.10,2013-01-09 14:27:00,
2013-01-09 09:42:00,69.8,69.0,26.90,NNE,29,0.0,-999.0,98,-99.99,,,0.01,weatherlink.com 1.10,2013-01-09 14:42:00,
2013-01-09 09:57:00,70.3,70.0,26.90,East,87,1.0,-999.0,98,-99.99,,,0.01,weatherlink.com 1.10,2013-01-09 14:57:00,
2013-01-09 10:12:00,70.6,70.0,26.90,East,92,0.0,-999.0,98,-99.99,,,0.01,weatherlink.com 1.10,2013-01-09 15:12:00,
2013-01-09 10:27:00,70.7,70.0,26.90,East,101,0.0,-999.0,98,-99.99,,,0.01,weatherlink.com 1.10,2013-01-09 15:27:00,
2013-01-09 10:42:00,71.4,71.0,26.90,East,99,0.0,-999.0,98,-99.99,,,0.01,weatherlink.com 1.10,2013-01-09 15:42:00,
2013-01-09 10:57:00,72.6,72.0,26.90,SE,131,0.0,-999.0,97,-99.99,,,0.01,weatherlink.com 1.10,2013-01-09 15:57:00,
2013-01-09 11:12:00,73.9,72.0,25.22,ESE,120,0.0,-999.0,95,-99.99,,,0.01,weatherlink.com 1.10,2013-01-09 16:12:00,
2013-01-09 11:27:00,75.3,73.0,25.22,South,175,0.0,-999.0,92,-99.99,,,0.01,weatherlink.com 1.10,2013-01-09 16:27:00,
2013-01-09 11:42:00,76.4,72.0,25.22,ESE,109,0.0,-999.0,87,-99.99,,,0.01,weatherlink.com 1.10,2013-01-09 16:42:00,
2013-01-09 11:57:00,76.8,72.0,25.22,SE,139,5.0,-999.0,84,-99.99,,,0.01,weatherlink.com 1.10,2013-01-09 16:57:00,
2013-01-09 12:12:00,77.2,72.0,25.22,SE,129,0.0,-999.0,84,-99.99,,,0.01,weatherlink.com 1.10,2013-01-09 17:12:00,
2013-01-09 12:27:00,77.7,72.0,24.94,ESE,119,0.0,-999.0,82,-99.99,,,0.01,weatherlink.com 1.10,2013-01-09 17:27:00,
2013-01-09 12:42:00,77.7,71.0,24.94,ESE,114,0.0,-999.0,81,-99.99,,,0.01,weatherlink.com 1.10,2013-01-09 17:42:00,
2013-01-09 12:57:00,78.1,71.0,24.94,SSE,162,2.0,-999.0,79,-99.99,,,0.01,weatherlink.com 1.10,2013-01-09 17:57:00,
2013-01-09 13:12:00,77.8,72.0,25.05,East,100,0.0,-999.0,81,-99.99,,,0.01,weatherlink.com 1.10,2013-01-09 18:12:00,
2013-01-09 13:27:00,78.0,72.0,25.05,East,100,0.0,-999.0,81,-99.99,,,0.01,weatherlink.com 1.10,2013-01-09 18:27:00,
2013-01-09 13:42:00,77.9,71.0,25.05,East,85,0.0,-999.0,78,-99.99,,,0.01,weatherlink.com 1.10,2013-01-09 18:42:00,
2013-01-09 13:57:00,78.2,71.0,24.91,ESE,107,0.0,-999.0,78,-99.99,,,0.01,weatherlink.com 1.10,2013-01-09 18:57:00,
2013-01-09 14:12:00,78.3,71.0,24.91,ESE,104,0.0,-999.0,78,-99.99,,,0.01,weatherlink.com 1.10,2013-01-09 19:12:00,
2013-01-09 14:27:00,79.3,72.0,24.13,ENE,72,0.0,-999.0,78,-99.99,,,0.01,weatherlink.com 1.10,2013-01-09 19:27:00,
2013-01-09 14:42:00,80.2,72.0,24.13,NNE,30,4.0,-999.0,76,-99.99,,,0.01,weatherlink.com 1.10,2013-01-09 19:42:00,
2013-01-09 14:57:00,81.1,72.0,24.81,ENE,64,5.0,-999.0,73,-99.99,,,0.01,weatherlink.com 1.10,2013-01-09 19:57:00,
2013-01-09 15:12:00,80.5,72.0,24.81,ENE,77,0.0,-999.0,75,-99.99,,,0.01,weatherlink.com 1.10,2013-01-09 20:12:00,
2013-01-09 15:27:00,81.0,72.0,24.81,ENE,68,0.0,-999.0,74,-99.99,,,0.01,weatherlink.com 1.10,2013-01-09 20:27:00,
2013-01-09 15:42:00,79.6,71.0,24.81,East,97,0.0,-999.0,75,-99.99,,,0.01,weatherlink.com 1.10,2013-01-09 20:42:00,
2013-01-09 15:57:00,79.3,71.0,24.69,ENE,77,0.0,-999.0,76,-99.99,,,0.01,weatherlink.com 1.10,2013-01-09 20:57:00,
2013-01-09 16:12:00,79.4,71.0,24.69,ENE,67,0.0,-999.0,75,-99.99,,,0.01,weatherlink.com 1.10,2013-01-09 21:12:00,
2013-01-09 16:27:00,79.8,71.0,24.69,ESE,110,1.0,-999.0,74,-99.99,,,0.01,weatherlink.com 1.10,2013-01-09 21:27:00,
2013-01-09 16:42:00,79.8,71.0,24.69,NE,41,0.0,-999.0,74,-99.99,,,0.01,weatherlink.com 1.10,2013-01-09 21:42:00,
2013-01-09 16:57:00,79.5,71.0,24.69,NE,56,0.0,-999.0,75,-99.99,,,0.01,weatherlink.com 1.10,2013-01-09 21:57:00,
2013-01-09 17:12:00,78.8,71.0,24.25,East,91,0.0,-999.0,76,-99.99,,,0.01,weatherlink.com 1.10,2013-01-09 22:12:00,
2013-01-09 17:27:00,78.1,70.0,24.25,NE,45,0.0,-999.0,77,-99.99,,,0.01,weatherlink.com 1.10,2013-01-09 22:27:00,
2013-01-09 17:43:00,77.2,70.0,24.25,NE,50,0.0,-999.0,79,-99.99,,,0.01,weatherlink.com 1.10,2013-01-09 22:43:00,
2013-01-09 17:58:00,76.5,70.0,24.25,NE,50,0.0,-999.0,81,-99.99,,,0.01,weatherlink.com 1.10,2013-01-09 22:58:00,
2013-01-09 18:13:00,75.8,70.0,24.25,NE,50,0.0,-999.0,82,-99.99,,,0.01,weatherlink.com 1.10,2013-01-09 23:13:00,
2013-01-09 18:28:00,75.3,70.0,24.25,NE,51,0.0,-999.0,84,-99.99,,,0.01,weatherlink.com 1.10,2013-01-09 23:28:00,
2013-01-09 18:43:00,74.6,70.0,24.25,NE,51,0.0,-999.0,85,-99.99,,,0.01,weatherlink.com 1.10,2013-01-09 23:43:00,
2013-01-09 18:58:00,74.1,69.0,25.13,ENE,59,0.0,-999.0,85,-99.99,,,0.01,weatherlink.com 1.10,2013-01-09 23:58:00,
2013-01-09 19:13:00,73.6,69.0,25.13,ENE,59,1.0,-999.0,85,-99.99,,,0.01,weatherlink.com 1.10,2013-01-10 00:13:00,
2013-01-09 19:28:00,73.3,69.0,25.13,ENE,61,0.0,-999.0,86,-99.99,,,0.01,weatherlink.com 1.10,2013-01-10 00:28:00,
2013-01-09 19:43:00,73.0,69.0,25.13,ENE,61,0.0,-999.0,87,-99.99,,,0.01,weatherlink.com 1.10,2013-01-10 00:43:00,
2013-01-09 19:58:00,72.5,69.0,24.75,ENE,61,0.0,-999.0,88,-99.99,,,0.01,weatherlink.com 1.10,2013-01-10 00:58:00,
2013-01-09 20:13:00,72.1,68.0,24.75,ENE,63,0.0,-999.0,88,-99.99,,,0.01,weatherlink.com 1.10,2013-01-10 01:13:00,
2013-01-09 20:28:00,71.8,69.0,25.66,ENE,64,0.0,-999.0,89,-99.99,,,0.01,weatherlink.com 1.10,2013-01-10 01:28:00,
2013-01-09 20:43:00,71.5,68.0,25.73,ENE,64,0.0,-999.0,89,-99.99,,,0.01,weatherlink.com 1.10,2013-01-10 01:43:00,
2013-01-09 20:58:00,71.2,68.0,25.73,ENE,64,0.0,-999.0,90,-99.99,,,0.01,weatherlink.com 1.10,2013-01-10 01:58:00,
2013-01-09 21:13:00,71.0,68.0,25.73,ENE,64,0.0,-999.0,90,-99.99,,,0.01,weatherlink.com 1.10,2013-01-10 02:13:00,
2013-01-09 21:28:00,70.7,68.0,25.25,ENE,64,0.0,-999.0,91,-99.99,,,0.01,weatherlink.com 1.10,2013-01-10 02:28:00,
2013-01-09 21:43:00,70.5,68.0,25.25,ENE,64,0.0,-999.0,92,-99.99,,,0.01,weatherlink.com 1.10,2013-01-10 02:43:00,
2013-01-09 21:58:00,70.3,68.0,25.25,ENE,64,0.0,-999.0,92,-99.99,,,0.01,weatherlink.com 1.10,2013-01-10 02:58:00,
2013-01-09 22:13:00,70.2,68.0,25.25,ENE,64,0.0,-999.0,92,-99.99,,,0.01,weatherlink.com 1.10,2013-01-10 03:13:00,
2013-01-09 22:28:00,70.1,68.0,25.25,ENE,64,0.0,-999.0,93,-99.99,,,0.01,weatherlink.com 1.10,2013-01-10 03:28:00,
2013-01-09 22:43:00,69.9,68.0,25.51,ENE,64,0.0,-999.0,93,-99.99,,,0.01,weatherlink.com 1.10,2013-01-10 03:43:00,
2013-01-09 22:58:00,69.7,68.0,25.51,ENE,64,0.0,-999.0,93,-99.99,,,0.01,weatherlink.com 1.10,2013-01-10 03:58:00,
2013-01-09 23:13:00,69.6,68.0,25.51,ENE,64,0.0,-999.0,94,-99.99,,,0.01,weatherlink.com 1.10,2013-01-10 04:13:00,
2013-01-09 23:28:00,69.4,68.0,25.12,ENE,64,0.0,-999.0,94,-99.99,,,0.01,weatherlink.com 1.10,2013-01-10 04:28:00,
2013-01-09 23:43:00,69.3,68.0,25.05,ENE,64,0.0,-999.0,94,-99.99,,,0.01,weatherlink.com 1.10,2013-01-10 04:43:00,
2013-01-09 23:58:00,69.2,68.0,25.05,ENE,64,0.0,-999.0,94,-99.99,,,0.01,weatherlink.com 1.10,2013-01-10 04:58:00,